Indian Hill, Texas
Current Conditions -  °F | °C
As of 11:15 AM on Friday 19 Dec 2014 (Local Time) from KJAS Reporting Station
Light Rain Light Rain  
Wind Chill: 51°   Ceiling: 700
Heat Index: 51°   Visibility: 10mi
Dew Point: 50°   Wind: 10mph
Humidity: 95%   Direction: 360°N
Pressure: 30.14"   Gusts: NA
Location:  31.0751°N, 93.8073°W
Report Text: KJAS 191715Z AUTO 36009KT 10SM -RA OVC007 11/10 A3014 RMK AO2 P0002 T01070100
Loading
Personal Weather Stations






























Interactive Weather Map New forecast layout! Learn more

10-Day Weather Forecast

Advertisements
Track Severe Weather on mobile